sensor_id;sensor_type;location;lat;lon;timestamp;P1;durP1;ratioP1;P2;durP2;ratioP2
6651;SDS011;3362;50.892;10.692;2023-04-28T00:00:44;8.52;;;4.82;;
6651;SDS011;3362;50.892;10.692;2023-04-28T00:03:12;10.68;;;5.15;;
6651;SDS011;3362;50.892;10.692;2023-04-28T00:05:39;6.78;;;4.25;;
6651;SDS011;3362;50.892;10.692;2023-04-28T00:08:05;6.82;;;4.70;;
6651;SDS011;3362;50.892;10.692;2023-04-28T00:10:31;9.55;;;5.03;;
6651;SDS011;3362;50.892;10.692;2023-04-28T00:12:58;12.35;;;5.32;;
6651;SDS011;3362;50.892;10.692;2023-04-28T00:15:24;7.50;;;4.82;;
6651;SDS011;3362;50.892;10.692;2023-04-28T00:17:50;10.93;;;5.13;;
6651;SDS011;3362;50.892;10.692;2023-04-28T00:20:18;7.93;;;4.90;;
6651;SDS011;3362;50.892;10.692;2023-04-28T00:22:44;9.25;;;5.88;;
6651;SDS011;3362;50.892;10.692;2023-04-28T00:25:11;9.65;;;4.85;;
6651;SDS011;3362;50.892;10.692;2023-04-28T00:27:37;8.10;;;4.68;;
6651;SDS011;3362;50.892;10.692;2023-04-28T00:30:03;8.98;;;5.38;;
6651;SDS011;3362;50.892;10.692;2023-04-28T00:32:30;14.38;;;4.80;;
6651;SDS011;3362;50.892;10.692;2023-04-28T00:34:56;14.45;;;5.00;;
6651;SDS011;3362;50.892;10.692;2023-04-28T00:37:23;13.35;;;5.82;;
6651;SDS011;3362;50.892;10.692;2023-04-28T00:39:53;12.75;;;5.78;;
6651;SDS011;3362;50.892;10.692;2023-04-28T00:42:19;8.95;;;5.15;;
6651;SDS011;3362;50.892;10.692;2023-04-28T00:44:45;10.02;;;4.85;;
6651;SDS011;3362;50.892;10.692;2023-04-28T00:47:11;7.53;;;5.18;;
6651;SDS011;3362;50.892;10.692;2023-04-28T00:49:38;9.63;;;4.68;;
6651;SDS011;3362;50.892;10.692;2023-04-28T00:52:05;7.45;;;4.63;;
6651;SDS011;3362;50.892;10.692;2023-04-28T00:54:32;10.73;;;5.55;;
6651;SDS011;3362;50.892;10.692;2023-04-28T00:56:59;10.68;;;5.20;;
6651;SDS011;3362;50.892;10.692;2023-04-28T00:59:27;9.95;;;5.50;;
6651;SDS011;3362;50.892;10.692;2023-04-28T01:01:53;13.60;;;5.95;;
6651;SDS011;3362;50.892;10.692;2023-04-28T01:04:20;8.88;;;5.53;;
6651;SDS011;3362;50.892;10.692;2023-04-28T01:06:46;7.25;;;4.85;;
6651;SDS011;3362;50.892;10.692;2023-04-28T01:09:13;9.43;;;4.53;;
6651;SDS011;3362;50.892;10.692;2023-04-28T01:11:40;8.10;;;4.97;;
6651;SDS011;3362;50.892;10.692;2023-04-28T01:14:06;11.20;;;5.47;;
6651;SDS011;3362;50.892;10.692;2023-04-28T01:16:32;11.63;;;5.28;;
6651;SDS011;3362;50.892;10.692;2023-04-28T01:18:59;11.77;;;5.28;;
6651;SDS011;3362;50.892;10.692;2023-04-28T01:21:25;12.13;;;5.47;;
6651;SDS011;3362;50.892;10.692;2023-04-28T01:23:54;10.15;;;5.78;;
6651;SDS011;3362;50.892;10.692;2023-04-28T01:26:20;10.68;;;5.50;;
6651;SDS011;3362;50.892;10.692;2023-04-28T01:28:46;9.77;;;5.25;;
6651;SDS011;3362;50.892;10.692;2023-04-28T01:31:13;9.38;;;5.15;;
6651;SDS011;3362;50.892;10.692;2023-04-28T01:33:39;11.13;;;5.55;;
6651;SDS011;3362;50.892;10.692;2023-04-28T01:36:05;10.77;;;5.80;;
6651;SDS011;3362;50.892;10.692;2023-04-28T01:38:32;10.57;;;5.72;;
6651;SDS011;3362;50.892;10.692;2023-04-28T01:40:59;9.23;;;4.97;;
6651;SDS011;3362;50.892;10.692;2023-04-28T01:43:26;6.25;;;4.43;;
6651;SDS011;3362;50.892;10.692;2023-04-28T01:45:52;7.65;;;4.72;;
6651;SDS011;3362;50.892;10.692;2023-04-28T01:48:18;10.52;;;5.65;;
6651;SDS011;3362;50.892;10.692;2023-04-28T01:50:45;14.27;;;6.00;;
6651;SDS011;3362;50.892;10.692;2023-04-28T01:53:11;19.85;;;5.68;;
6651;SDS011;3362;50.892;10.692;2023-04-28T01:55:38;10.90;;;5.30;;
6651;SDS011;3362;50.892;10.692;2023-04-28T01:58:05;11.57;;;5.75;;
6651;SDS011;3362;50.892;10.692;2023-04-28T02:00:32;10.88;;;6.10;;
6651;SDS011;3362;50.892;10.692;2023-04-28T02:02:58;7.68;;;5.45;;
6651;SDS011;3362;50.892;10.692;2023-04-28T02:05:24;10.95;;;5.65;;
6651;SDS011;3362;50.892;10.692;2023-04-28T02:07:50;9.45;;;5.25;;
6651;SDS011;3362;50.892;10.692;2023-04-28T02:10:17;9.30;;;5.07;;
6651;SDS011;3362;50.892;10.692;2023-04-28T02:12:43;7.63;;;5.53;;
6651;SDS011;3362;50.892;10.692;2023-04-28T02:15:11;8.85;;;5.00;;
6651;SDS011;3362;50.892;10.692;2023-04-28T02:17:38;8.07;;;5.10;;
6651;SDS011;3362;50.892;10.692;2023-04-28T02:20:04;8.80;;;5.13;;
6651;SDS011;3362;50.892;10.692;2023-04-28T02:22:31;8.75;;;5.32;;
6651;SDS011;3362;50.892;10.692;2023-04-28T02:24:57;7.22;;;4.80;;
6651;SDS011;3362;50.892;10.692;2023-04-28T02:27:23;10.27;;;5.70;;
6651;SDS011;3362;50.892;10.692;2023-04-28T02:29:50;10.52;;;5.38;;
6651;SDS011;3362;50.892;10.692;2023-04-28T02:32:17;7.90;;;4.95;;
6651;SDS011;3362;50.892;10.692;2023-04-28T02:34:44;7.40;;;4.75;;
6651;SDS011;3362;50.892;10.692;2023-04-28T02:37:10;8.05;;;5.10;;
6651;SDS011;3362;50.892;10.692;2023-04-28T02:39:36;8.27;;;5.18;;
6651;SDS011;3362;50.892;10.692;2023-04-28T02:42:04;7.20;;;4.18;;
6651;SDS011;3362;50.892;10.692;2023-04-28T02:44:30;7.30;;;4.95;;
6651;SDS011;3362;50.892;10.692;2023-04-28T02:46:56;9.82;;;5.15;;
6651;SDS011;3362;50.892;10.692;2023-04-28T02:49:24;7.93;;;4.88;;
6651;SDS011;3362;50.892;10.692;2023-04-28T02:51:50;7.60;;;4.82;;
6651;SDS011;3362;50.892;10.692;2023-04-28T02:54:16;8.18;;;4.82;;
6651;SDS011;3362;50.892;10.692;2023-04-28T02:56:51;10.75;;;4.45;;
6651;SDS011;3362;50.892;10.692;2023-04-28T02:59:17;7.68;;;4.75;;
6651;SDS011;3362;50.892;10.692;2023-04-28T03:01:43;7.78;;;5.20;;
6651;SDS011;3362;50.892;10.692;2023-04-28T03:04:10;7.88;;;4.32;;
6651;SDS011;3362;50.892;10.692;2023-04-28T03:06:37;7.65;;;4.40;;
6651;SDS011;3362;50.892;10.692;2023-04-28T03:09:03;8.35;;;5.43;;
6651;SDS011;3362;50.892;10.692;2023-04-28T03:11:30;8.10;;;5.22;;
6651;SDS011;3362;50.892;10.692;2023-04-28T03:13:56;10.93;;;5.57;;
6651;SDS011;3362;50.892;10.692;2023-04-28T03:16:23;11.18;;;5.60;;
6651;SDS011;3362;50.892;10.692;2023-04-28T03:18:49;14.27;;;6.47;;
6651;SDS011;3362;50.892;10.692;2023-04-28T03:21:15;8.98;;;5.65;;
6651;SDS011;3362;50.892;10.692;2023-04-28T03:23:43;10.63;;;6.03;;
6651;SDS011;3362;50.892;10.692;2023-04-28T03:26:09;10.30;;;6.25;;
6651;SDS011;3362;50.892;10.692;2023-04-28T03:28:35;9.18;;;5.35;;
6651;SDS011;3362;50.892;10.692;2023-04-28T03:31:02;8.98;;;5.30;;
6651;SDS011;3362;50.892;10.692;2023-04-28T03:33:28;12.23;;;6.55;;
6651;SDS011;3362;50.892;10.692;2023-04-28T03:35:54;9.23;;;5.60;;
6651;SDS011;3362;50.892;10.692;2023-04-28T03:38:21;11.25;;;5.80;;
6651;SDS011;3362;50.892;10.692;2023-04-28T03:40:48;10.55;;;5.95;;
6651;SDS011;3362;50.892;10.692;2023-04-28T03:43:15;13.23;;;6.93;;
6651;SDS011;3362;50.892;10.692;2023-04-28T03:45:41;9.57;;;5.88;;
6651;SDS011;3362;50.892;10.692;2023-04-28T03:48:07;10.93;;;6.03;;
6651;SDS011;3362;50.892;10.692;2023-04-28T03:50:33;12.82;;;6.95;;
6651;SDS011;3362;50.892;10.692;2023-04-28T03:52:59;8.43;;;4.88;;
6651;SDS011;3362;50.892;10.692;2023-04-28T03:55:26;9.43;;;5.97;;
6651;SDS011;3362;50.892;10.692;2023-04-28T03:57:53;9.20;;;5.05;;
6651;SDS011;3362;50.892;10.692;2023-04-28T04:00:20;8.63;;;5.05;;
6651;SDS011;3362;50.892;10.692;2023-04-28T04:02:46;11.43;;;6.43;;
6651;SDS011;3362;50.892;10.692;2023-04-28T04:05:12;9.98;;;5.68;;
6651;SDS011;3362;50.892;10.692;2023-04-28T04:07:38;11.15;;;5.75;;
6651;SDS011;3362;50.892;10.692;2023-04-28T04:10:06;10.38;;;6.32;;
6651;SDS011;3362;50.892;10.692;2023-04-28T04:12:32;8.93;;;5.30;;
6651;SDS011;3362;50.892;10.692;2023-04-28T04:15:00;8.63;;;5.93;;
6651;SDS011;3362;50.892;10.692;2023-04-28T04:17:26;8.68;;;5.30;;
6651;SDS011;3362;50.892;10.692;2023-04-28T04:19:52;10.20;;;5.00;;
6651;SDS011;3362;50.892;10.692;2023-04-28T04:22:18;10.02;;;5.72;;
6651;SDS011;3362;50.892;10.692;2023-04-28T04:24:45;10.02;;;5.63;;
6651;SDS011;3362;50.892;10.692;2023-04-28T04:27:11;10.07;;;5.88;;
6651;SDS011;3362;50.892;10.692;2023-04-28T04:29:37;11.00;;;5.57;;
6651;SDS011;3362;50.892;10.692;2023-04-28T04:32:05;7.78;;;5.35;;
6651;SDS011;3362;50.892;10.692;2023-04-28T04:34:31;9.30;;;5.95;;
6651;SDS011;3362;50.892;10.692;2023-04-28T04:36:57;12.63;;;5.63;;
6651;SDS011;3362;50.892;10.692;2023-04-28T04:39:24;14.35;;;5.72;;
6651;SDS011;3362;50.892;10.692;2023-04-28T04:41:50;10.98;;;5.10;;
6651;SDS011;3362;50.892;10.692;2023-04-28T04:44:16;9.07;;;5.60;;
6651;SDS011;3362;50.892;10.692;2023-04-28T04:46:42;11.02;;;5.63;;
6651;SDS011;3362;50.892;10.692;2023-04-28T04:49:10;7.80;;;5.22;;
6651;SDS011;3362;50.892;10.692;2023-04-28T04:51:36;9.13;;;5.95;;
6651;SDS011;3362;50.892;10.692;2023-04-28T04:54:02;10.32;;;6.03;;
6651;SDS011;3362;50.892;10.692;2023-04-28T04:56:29;12.88;;;6.95;;
6651;SDS011;3362;50.892;10.692;2023-04-28T04:58:55;17.25;;;8.77;;
6651;SDS011;3362;50.892;10.692;2023-04-28T05:01:22;17.83;;;9.63;;
6651;SDS011;3362;50.892;10.692;2023-04-28T05:03:48;14.55;;;8.48;;
6651;SDS011;3362;50.892;10.692;2023-04-28T05:06:15;26.00;;;11.07;;
6651;SDS011;3362;50.892;10.692;2023-04-28T05:08:42;17.98;;;9.95;;
6651;SDS011;3362;50.892;10.692;2023-04-28T05:11:08;26.33;;;9.75;;
6651;SDS011;3362;50.892;10.692;2023-04-28T05:13:34;26.38;;;10.50;;
6651;SDS011;3362;50.892;10.692;2023-04-28T05:16:00;19.95;;;10.45;;
6651;SDS011;3362;50.892;10.692;2023-04-28T05:18:26;16.60;;;10.20;;
6651;SDS011;3362;50.892;10.692;2023-04-28T05:20:53;15.00;;;8.38;;
6651;SDS011;3362;50.892;10.692;2023-04-28T05:23:20;16.30;;;8.75;;
6651;SDS011;3362;50.892;10.692;2023-04-28T05:25:47;14.20;;;8.90;;
6651;SDS011;3362;50.892;10.692;2023-04-28T05:28:13;12.98;;;8.32;;
6651;SDS011;3362;50.892;10.692;2023-04-28T05:30:39;15.57;;;10.00;;
6651;SDS011;3362;50.892;10.692;2023-04-28T05:33:07;19.80;;;10.77;;
6651;SDS011;3362;50.892;10.692;2023-04-28T05:35:33;17.13;;;9.15;;
6651;SDS011;3362;50.892;10.692;2023-04-28T05:37:59;14.95;;;8.35;;
6651;SDS011;3362;50.892;10.692;2023-04-28T05:40:27;12.52;;;8.10;;
6651;SDS011;3362;50.892;10.692;2023-04-28T05:42:54;12.27;;;8.52;;
6651;SDS011;3362;50.892;10.692;2023-04-28T05:45:20;13.82;;;8.95;;
6651;SDS011;3362;50.892;10.692;2023-04-28T05:47:46;13.63;;;8.75;;
6651;SDS011;3362;50.892;10.692;2023-04-28T05:50:12;14.77;;;8.65;;
6651;SDS011;3362;50.892;10.692;2023-04-28T05:52:38;14.65;;;7.90;;
6651;SDS011;3362;50.892;10.692;2023-04-28T05:55:05;14.90;;;7.45;;
6651;SDS011;3362;50.892;10.692;2023-04-28T05:57:33;15.18;;;7.47;;
6651;SDS011;3362;50.892;10.692;2023-04-28T05:59:59;8.90;;;6.45;;
6651;SDS011;3362;50.892;10.692;2023-04-28T06:02:25;14.80;;;7.57;;
6651;SDS011;3362;50.892;10.692;2023-04-28T06:04:52;15.60;;;7.57;;
6651;SDS011;3362;50.892;10.692;2023-04-28T06:07:18;11.98;;;6.88;;
6651;SDS011;3362;50.892;10.692;2023-04-28T06:09:44;11.73;;;8.07;;
6651;SDS011;3362;50.892;10.692;2023-04-28T06:12:10;18.95;;;7.55;;
6651;SDS011;3362;50.892;10.692;2023-04-28T06:14:38;14.80;;;8.13;;
6651;SDS011;3362;50.892;10.692;2023-04-28T06:17:04;16.60;;;7.32;;
6651;SDS011;3362;50.892;10.692;2023-04-28T06:19:30;11.32;;;7.38;;
6651;SDS011;3362;50.892;10.692;2023-04-28T06:21:57;12.40;;;7.00;;
6651;SDS011;3362;50.892;10.692;2023-04-28T06:24:23;12.93;;;8.13;;
6651;SDS011;3362;50.892;10.692;2023-04-28T06:26:49;11.30;;;7.35;;
6651;SDS011;3362;50.892;10.692;2023-04-28T06:29:15;13.07;;;7.65;;
6651;SDS011;3362;50.892;10.692;2023-04-28T06:31:43;12.75;;;6.93;;
6651;SDS011;3362;50.892;10.692;2023-04-28T06:34:09;10.38;;;6.10;;
6651;SDS011;3362;50.892;10.692;2023-04-28T06:36:35;8.70;;;5.38;;
6651;SDS011;3362;50.892;10.692;2023-04-28T06:39:02;16.73;;;7.07;;
6651;SDS011;3362;50.892;10.692;2023-04-28T06:41:28;11.50;;;5.60;;
6651;SDS011;3362;50.892;10.692;2023-04-28T06:43:54;10.90;;;5.05;;
6651;SDS011;3362;50.892;10.692;2023-04-28T06:46:20;8.35;;;5.78;;
6651;SDS011;3362;50.892;10.692;2023-04-28T06:48:48;14.10;;;7.28;;
6651;SDS011;3362;50.892;10.692;2023-04-28T06:51:14;11.30;;;6.97;;
6651;SDS011;3362;50.892;10.692;2023-04-28T06:53:40;10.68;;;5.88;;
6651;SDS011;3362;50.892;10.692;2023-04-28T06:56:07;10.25;;;5.70;;
6651;SDS011;3362;50.892;10.692;2023-04-28T06:58:33;11.10;;;5.68;;
6651;SDS011;3362;50.892;10.692;2023-04-28T07:00:59;9.07;;;5.68;;
6651;SDS011;3362;50.892;10.692;2023-04-28T07:03:27;10.45;;;5.65;;
6651;SDS011;3362;50.892;10.692;2023-04-28T07:05:55;8.32;;;5.00;;
6651;SDS011;3362;50.892;10.692;2023-04-28T07:08:22;7.93;;;5.18;;
6651;SDS011;3362;50.892;10.692;2023-04-28T07:10:48;8.18;;;5.30;;
6651;SDS011;3362;50.892;10.692;2023-04-28T07:13:14;8.35;;;5.55;;
6651;SDS011;3362;50.892;10.692;2023-04-28T07:15:41;9.80;;;4.80;;
6651;SDS011;3362;50.892;10.692;2023-04-28T07:18:07;9.50;;;5.47;;
6651;SDS011;3362;50.892;10.692;2023-04-28T07:20:34;7.90;;;4.60;;
6651;SDS011;3362;50.892;10.692;2023-04-28T07:23:01;7.60;;;4.55;;
6651;SDS011;3362;50.892;10.692;2023-04-28T07:25:28;6.65;;;4.82;;
6651;SDS011;3362;50.892;10.692;2023-04-28T07:27:54;11.63;;;4.28;;
6651;SDS011;3362;50.892;10.692;2023-04-28T07:30:21;8.40;;;4.60;;
6651;SDS011;3362;50.892;10.692;2023-04-28T07:32:47;5.72;;;4.10;;
6651;SDS011;3362;50.892;10.692;2023-04-28T07:35:13;8.02;;;4.70;;
6651;SDS011;3362;50.892;10.692;2023-04-28T07:37:40;6.50;;;4.55;;
6651;SDS011;3362;50.892;10.692;2023-04-28T07:40:08;7.93;;;4.70;;
6651;SDS011;3362;50.892;10.692;2023-04-28T07:42:34;9.82;;;5.05;;
6651;SDS011;3362;50.892;10.692;2023-04-28T07:45:01;9.88;;;5.45;;
6651;SDS011;3362;50.892;10.692;2023-04-28T07:47:28;12.25;;;7.05;;
6651;SDS011;3362;50.892;10.692;2023-04-28T07:49:54;11.95;;;6.97;;
6651;SDS011;3362;50.892;10.692;2023-04-28T07:52:21;13.43;;;7.10;;
6651;SDS011;3362;50.892;10.692;2023-04-28T07:54:47;9.13;;;6.50;;
6651;SDS011;3362;50.892;10.692;2023-04-28T07:57:14;13.20;;;7.15;;
6651;SDS011;3362;50.892;10.692;2023-04-28T07:59:41;11.40;;;7.40;;
6651;SDS011;3362;50.892;10.692;2023-04-28T08:02:07;15.18;;;7.93;;
6651;SDS011;3362;50.892;10.692;2023-04-28T08:04:33;9.52;;;6.97;;
6651;SDS011;3362;50.892;10.692;2023-04-28T08:07:01;10.85;;;6.97;;
6651;SDS011;3362;50.892;10.692;2023-04-28T08:09:27;16.92;;;7.70;;
6651;SDS011;3362;50.892;10.692;2023-04-28T08:11:53;16.10;;;7.50;;
6651;SDS011;3362;50.892;10.692;2023-04-28T08:14:21;13.27;;;8.05;;
6651;SDS011;3362;50.892;10.692;2023-04-28T08:16:47;26.15;;;8.27;;
6651;SDS011;3362;50.892;10.692;2023-04-28T08:19:13;15.13;;;8.90;;
6651;SDS011;3362;50.892;10.692;2023-04-28T08:21:40;35.42;;;18.25;;
6651;SDS011;3362;50.892;10.692;2023-04-28T08:24:06;25.98;;;18.30;;
6651;SDS011;3362;50.892;10.692;2023-04-28T08:26:34;28.90;;;13.98;;
6651;SDS011;3362;50.892;10.692;2023-04-28T08:29:00;19.80;;;11.30;;
6651;SDS011;3362;50.892;10.692;2023-04-28T08:31:28;16.92;;;11.40;;
6651;SDS011;3362;50.892;10.692;2023-04-28T08:33:54;17.88;;;10.88;;
6651;SDS011;3362;50.892;10.692;2023-04-28T08:36:21;15.18;;;9.90;;
6651;SDS011;3362;50.892;10.692;2023-04-28T08:38:47;22.13;;;11.70;;
6651;SDS011;3362;50.892;10.692;2023-04-28T08:41:14;23.67;;;11.55;;
6651;SDS011;3362;50.892;10.692;2023-04-28T08:43:40;19.45;;;10.45;;
6651;SDS011;3362;50.892;10.692;2023-04-28T08:46:07;19.88;;;9.85;;
6651;SDS011;3362;50.892;10.692;2023-04-28T08:48:37;14.27;;;9.82;;
6651;SDS011;3362;50.892;10.692;2023-04-28T08:51:05;16.77;;;9.88;;
6651;SDS011;3362;50.892;10.692;2023-04-28T08:53:31;18.30;;;9.52;;
6651;SDS011;3362;50.892;10.692;2023-04-28T08:56:01;21.08;;;12.45;;
6651;SDS011;3362;50.892;10.692;2023-04-28T08:58:30;22.17;;;12.43;;
6651;SDS011;3362;50.892;10.692;2023-04-28T09:00:56;20.67;;;12.18;;
6651;SDS011;3362;50.892;10.692;2023-04-28T09:03:22;22.60;;;11.10;;
6651;SDS011;3362;50.892;10.692;2023-04-28T09:05:50;17.10;;;9.98;;
6651;SDS011;3362;50.892;10.692;2023-04-28T09:08:16;16.02;;;9.70;;
6651;SDS011;3362;50.892;10.692;2023-04-28T09:10:42;19.38;;;11.20;;
6651;SDS011;3362;50.892;10.692;2023-04-28T09:13:09;16.35;;;10.85;;
6651;SDS011;3362;50.892;10.692;2023-04-28T09:15:35;18.17;;;11.32;;
6651;SDS011;3362;50.892;10.692;2023-04-28T09:18:02;16.98;;;11.00;;
6651;SDS011;3362;50.892;10.692;2023-04-28T09:20:29;23.77;;;11.77;;
6651;SDS011;3362;50.892;10.692;2023-04-28T09:23:11;18.92;;;11.68;;
6651;SDS011;3362;50.892;10.692;2023-04-28T09:25:37;19.05;;;12.45;;
6651;SDS011;3362;50.892;10.692;2023-04-28T09:28:09;21.05;;;11.57;;
6651;SDS011;3362;50.892;10.692;2023-04-28T09:30:44;20.08;;;10.88;;
6651;SDS011;3362;50.892;10.692;2023-04-28T09:33:10;20.25;;;10.07;;
6651;SDS011;3362;50.892;10.692;2023-04-28T09:35:39;17.77;;;9.73;;
6651;SDS011;3362;50.892;10.692;2023-04-28T09:38:07;16.20;;;9.77;;
6651;SDS011;3362;50.892;10.692;2023-04-28T09:40:38;16.90;;;11.02;;
6651;SDS011;3362;50.892;10.692;2023-04-28T09:43:21;22.85;;;11.98;;
6651;SDS011;3362;50.892;10.692;2023-04-28T09:45:48;24.65;;;12.30;;
6651;SDS011;3362;50.892;10.692;2023-04-28T09:48:14;21.00;;;11.30;;
6651;SDS011;3362;50.892;10.692;2023-04-28T09:50:41;20.42;;;10.02;;
6651;SDS011;3362;50.892;10.692;2023-04-28T09:53:08;22.08;;;12.90;;
6651;SDS011;3362;50.892;10.692;2023-04-28T09:55:37;22.20;;;12.00;;
6651;SDS011;3362;50.892;10.692;2023-04-28T09:58:04;19.85;;;10.95;;
6651;SDS011;3362;50.892;10.692;2023-04-28T10:00:32;22.58;;;11.80;;
6651;SDS011;3362;50.892;10.692;2023-04-28T10:02:58;21.60;;;12.15;;
6651;SDS011;3362;50.892;10.692;2023-04-28T10:05:25;17.92;;;9.93;;
6651;SDS011;3362;50.892;10.692;2023-04-28T10:07:52;16.10;;;10.00;;
6651;SDS011;3362;50.892;10.692;2023-04-28T10:10:20;15.15;;;10.07;;
6651;SDS011;3362;50.892;10.692;2023-04-28T10:12:47;16.08;;;8.45;;
6651;SDS011;3362;50.892;10.692;2023-04-28T10:15:13;14.00;;;7.72;;
6651;SDS011;3362;50.892;10.692;2023-04-28T10:17:40;13.95;;;8.70;;
6651;SDS011;3362;50.892;10.692;2023-04-28T10:20:06;11.07;;;8.05;;
6651;SDS011;3362;50.892;10.692;2023-04-28T10:22:38;12.25;;;6.88;;
6651;SDS011;3362;50.892;10.692;2023-04-28T10:25:11;11.88;;;7.45;;
6651;SDS011;3362;50.892;10.692;2023-04-28T10:27:47;9.68;;;7.20;;
6651;SDS011;3362;50.892;10.692;2023-04-28T10:30:14;15.38;;;7.90;;
6651;SDS011;3362;50.892;10.692;2023-04-28T10:32:41;15.98;;;8.48;;
6651;SDS011;3362;50.892;10.692;2023-04-28T10:38:03;9.63;;;6.97;;
6651;SDS011;3362;50.892;10.692;2023-04-28T10:40:30;25.77;;;7.90;;
6651;SDS011;3362;50.892;10.692;2023-04-28T10:42:58;11.27;;;6.53;;
6651;SDS011;3362;50.892;10.692;2023-04-28T10:48:11;13.68;;;7.40;;
6651;SDS011;3362;50.892;10.692;2023-04-28T10:50:37;12.32;;;7.40;;
6651;SDS011;3362;50.892;10.692;2023-04-28T10:53:22;11.32;;;7.57;;
6651;SDS011;3362;50.892;10.692;2023-04-28T10:56:09;14.25;;;8.90;;
6651;SDS011;3362;50.892;10.692;2023-04-28T10:58:37;10.63;;;7.13;;
6651;SDS011;3362;50.892;10.692;2023-04-28T11:01:25;15.57;;;8.52;;
6651;SDS011;3362;50.892;10.692;2023-04-28T11:03:51;15.20;;;7.38;;
6651;SDS011;3362;50.892;10.692;2023-04-28T11:06:24;12.38;;;7.50;;
6651;SDS011;3362;50.892;10.692;2023-04-28T11:08:52;17.20;;;7.50;;
6651;SDS011;3362;50.892;10.692;2023-04-28T11:11:20;13.95;;;7.38;;
6651;SDS011;3362;50.892;10.692;2023-04-28T11:13:48;11.07;;;7.13;;
6651;SDS011;3362;50.892;10.692;2023-04-28T11:16:15;11.40;;;7.18;;
6651;SDS011;3362;50.892;10.692;2023-04-28T11:18:49;12.30;;;7.82;;
6651;SDS011;3362;50.892;10.692;2023-04-28T11:21:16;12.07;;;7.13;;
6651;SDS011;3362;50.892;10.692;2023-04-28T11:23:42;9.52;;;7.15;;
6651;SDS011;3362;50.892;10.692;2023-04-28T11:26:09;14.75;;;7.70;;
6651;SDS011;3362;50.892;10.692;2023-04-28T11:28:35;15.90;;;7.57;;
6651;SDS011;3362;50.892;10.692;2023-04-28T11:31:12;11.98;;;7.10;;
6651;SDS011;3362;50.892;10.692;2023-04-28T11:33:42;13.80;;;8.00;;
6651;SDS011;3362;50.892;10.692;2023-04-28T11:36:20;15.35;;;9.05;;
6651;SDS011;3362;50.892;10.692;2023-04-28T11:38:46;17.90;;;8.10;;
6651;SDS011;3362;50.892;10.692;2023-04-28T11:41:13;15.18;;;9.32;;
6651;SDS011;3362;50.892;10.692;2023-04-28T11:43:39;11.07;;;8.20;;
6651;SDS011;3362;50.892;10.692;2023-04-28T11:46:06;12.20;;;7.55;;
6651;SDS011;3362;50.892;10.692;2023-04-28T11:48:33;11.23;;;6.53;;
6651;SDS011;3362;50.892;10.692;2023-04-28T11:50:59;8.18;;;6.03;;
6651;SDS011;3362;50.892;10.692;2023-04-28T11:53:39;10.07;;;6.50;;
6651;SDS011;3362;50.892;10.692;2023-04-28T11:56:05;8.50;;;5.97;;
6651;SDS011;3362;50.892;10.692;2023-04-28T11:58:33;6.88;;;5.65;;
6651;SDS011;3362;50.892;10.692;2023-04-28T12:01:05;7.65;;;5.05;;
6651;SDS011;3362;50.892;10.692;2023-04-28T12:03:31;7.20;;;4.88;;
6651;SDS011;3362;50.892;10.692;2023-04-28T12:05:59;7.32;;;4.65;;
6651;SDS011;3362;50.892;10.692;2023-04-28T12:08:26;7.07;;;4.70;;
6651;SDS011;3362;50.892;10.692;2023-04-28T12:11:05;7.88;;;4.57;;
6651;SDS011;3362;50.892;10.692;2023-04-28T12:13:32;6.38;;;4.10;;
6651;SDS011;3362;50.892;10.692;2023-04-28T12:16:00;5.38;;;3.80;;
6651;SDS011;3362;50.892;10.692;2023-04-28T12:18:27;5.65;;;4.10;;
6651;SDS011;3362;50.892;10.692;2023-04-28T12:20:53;6.28;;;3.40;;
6651;SDS011;3362;50.892;10.692;2023-04-28T12:23:28;5.57;;;3.50;;
6651;SDS011;3362;50.892;10.692;2023-04-28T12:25:55;4.38;;;3.08;;
6651;SDS011;3362;50.892;10.692;2023-04-28T12:28:22;5.53;;;2.90;;
6651;SDS011;3362;50.892;10.692;2023-04-28T12:30:48;3.97;;;2.83;;
6651;SDS011;3362;50.892;10.692;2023-04-28T12:33:21;4.50;;;3.28;;
6651;SDS011;3362;50.892;10.692;2023-04-28T12:35:48;4.85;;;3.25;;
6651;SDS011;3362;50.892;10.692;2023-04-28T12:38:15;4.03;;;3.25;;
6651;SDS011;3362;50.892;10.692;2023-04-28T12:40:43;4.70;;;2.15;;
6651;SDS011;3362;50.892;10.692;2023-04-28T12:43:09;4.68;;;2.50;;
6651;SDS011;3362;50.892;10.692;2023-04-28T12:45:36;3.75;;;2.40;;
6651;SDS011;3362;50.892;10.692;2023-04-28T12:48:02;5.07;;;2.60;;
6651;SDS011;3362;50.892;10.692;2023-04-28T12:50:28;3.42;;;2.15;;
6651;SDS011;3362;50.892;10.692;2023-04-28T12:52:57;3.10;;;2.42;;
6651;SDS011;3362;50.892;10.692;2023-04-28T12:55:23;2.10;;;1.88;;
6651;SDS011;3362;50.892;10.692;2023-04-28T12:57:51;2.90;;;1.95;;
6651;SDS011;3362;50.892;10.692;2023-04-28T13:00:17;1.60;;;1.23;;
6651;SDS011;3362;50.892;10.692;2023-04-28T13:02:47;3.53;;;1.45;;
6651;SDS011;3362;50.892;10.692;2023-04-28T13:05:13;3.75;;;1.98;;
6651;SDS011;3362;50.892;10.692;2023-04-28T13:07:39;1.98;;;1.75;;
6651;SDS011;3362;50.892;10.692;2023-04-28T13:10:06;1.92;;;1.73;;
6651;SDS011;3362;50.892;10.692;2023-04-28T13:12:33;2.10;;;1.67;;
6651;SDS011;3362;50.892;10.692;2023-04-28T13:15:01;1.95;;;1.48;;
6651;SDS011;3362;50.892;10.692;2023-04-28T13:17:28;2.08;;;1.40;;
6651;SDS011;3362;50.892;10.692;2023-04-28T13:19:54;1.92;;;1.73;;
6651;SDS011;3362;50.892;10.692;2023-04-28T13:22:20;2.78;;;1.73;;
6651;SDS011;3362;50.892;10.692;2023-04-28T13:24:47;2.58;;;1.85;;
6651;SDS011;3362;50.892;10.692;2023-04-28T13:27:13;2.00;;;1.60;;
6651;SDS011;3362;50.892;10.692;2023-04-28T13:29:40;3.42;;;2.40;;
6651;SDS011;3362;50.892;10.692;2023-04-28T13:32:08;2.92;;;2.15;;
6651;SDS011;3362;50.892;10.692;2023-04-28T13:34:35;2.97;;;2.13;;
6651;SDS011;3362;50.892;10.692;2023-04-28T13:37:02;2.58;;;2.00;;
6651;SDS011;3362;50.892;10.692;2023-04-28T13:39:28;2.45;;;2.10;;
6651;SDS011;3362;50.892;10.692;2023-04-28T13:41:54;3.15;;;2.10;;
6651;SDS011;3362;50.892;10.692;2023-04-28T13:44:20;3.35;;;2.22;;
6651;SDS011;3362;50.892;10.692;2023-04-28T13:46:47;3.80;;;2.55;;
6651;SDS011;3362;50.892;10.692;2023-04-28T13:49:15;3.38;;;2.40;;
6651;SDS011;3362;50.892;10.692;2023-04-28T13:51:41;2.42;;;2.22;;
6651;SDS011;3362;50.892;10.692;2023-04-28T13:54:09;4.65;;;2.33;;
6651;SDS011;3362;50.892;10.692;2023-04-28T13:56:35;2.78;;;2.25;;
6651;SDS011;3362;50.892;10.692;2023-04-28T13:59:02;2.65;;;2.13;;
6651;SDS011;3362;50.892;10.692;2023-04-28T14:01:28;3.10;;;2.50;;
6651;SDS011;3362;50.892;10.692;2023-04-28T14:03:55;3.30;;;2.45;;
6651;SDS011;3362;50.892;10.692;2023-04-28T14:06:22;4.55;;;3.30;;
6651;SDS011;3362;50.892;10.692;2023-04-28T14:08:48;3.45;;;2.45;;
6651;SDS011;3362;50.892;10.692;2023-04-28T14:11:15;3.28;;;2.45;;
6651;SDS011;3362;50.892;10.692;2023-04-28T14:13:41;4.22;;;3.00;;
6651;SDS011;3362;50.892;10.692;2023-04-28T14:16:07;3.28;;;2.47;;
6651;SDS011;3362;50.892;10.692;2023-04-28T14:18:33;3.67;;;2.85;;
6651;SDS011;3362;50.892;10.692;2023-04-28T14:21:00;3.45;;;2.45;;
6651;SDS011;3362;50.892;10.692;2023-04-28T14:23:29;3.95;;;2.60;;
6651;SDS011;3362;50.892;10.692;2023-04-28T14:25:55;3.58;;;2.75;;
6651;SDS011;3362;50.892;10.692;2023-04-28T14:28:22;4.20;;;3.08;;
6651;SDS011;3362;50.892;10.692;2023-04-28T14:30:48;5.03;;;4.00;;
6651;SDS011;3362;50.892;10.692;2023-04-28T14:33:15;3.80;;;3.40;;
6651;SDS011;3362;50.892;10.692;2023-04-28T14:35:41;3.78;;;2.85;;
6651;SDS011;3362;50.892;10.692;2023-04-28T14:38:07;4.45;;;3.00;;
6651;SDS011;3362;50.892;10.692;2023-04-28T14:40:35;4.53;;;3.33;;
6651;SDS011;3362;50.892;10.692;2023-04-28T14:43:01;4.57;;;3.45;;
6651;SDS011;3362;50.892;10.692;2023-04-28T14:45:27;3.67;;;3.30;;
6651;SDS011;3362;50.892;10.692;2023-04-28T14:47:53;6.65;;;3.50;;
6651;SDS011;3362;50.892;10.692;2023-04-28T14:50:20;4.43;;;3.20;;
6651;SDS011;3362;50.892;10.692;2023-04-28T14:52:46;8.85;;;4.53;;
6651;SDS011;3362;50.892;10.692;2023-04-28T14:55:12;4.68;;;3.47;;
6651;SDS011;3362;50.892;10.692;2023-04-28T14:57:40;4.38;;;3.08;;